sensor_id;sensor_type;location;lat;lon;timestamp;pressure;altitude;pressure_sealevel;temperature
17716;BMP280;50159;49.426;11.182;2022-09-24T00:01:36;97479.06;;;9.20
17716;BMP280;50159;49.426;11.182;2022-09-24T00:04:10;97480.00;;;9.19
17716;BMP280;50159;49.426;11.182;2022-09-24T00:06:45;97480.25;;;9.17
17716;BMP280;50159;49.426;11.182;2022-09-24T00:09:14;97481.19;;;9.16
17716;BMP280;50159;49.426;11.182;2022-09-24T00:11:42;97477.53;;;9.18
17716;BMP280;50159;49.426;11.182;2022-09-24T00:14:11;97477.78;;;9.15
17716;BMP280;50159;49.426;11.182;2022-09-24T00:16:39;97477.16;;;9.12
17716;BMP280;50159;49.426;11.182;2022-09-24T00:19:06;97469.38;;;9.12
17716;BMP280;50159;49.426;11.182;2022-09-24T00:21:35;97471.84;;;9.13
17716;BMP280;50159;49.426;11.182;2022-09-24T00:24:16;97467.47;;;9.14
17716;BMP280;50159;49.426;11.182;2022-09-24T00:27:04;97464.81;;;9.15
17716;BMP280;50159;49.426;11.182;2022-09-24T00:29:31;97464.81;;;9.15
17716;BMP280;50159;49.426;11.182;2022-09-24T00:32:01;97460.44;;;9.16
17716;BMP280;50159;49.426;11.182;2022-09-24T00:34:29;97462.78;;;9.18
17716;BMP280;50159;49.426;11.182;2022-09-24T00:36:55;97460.44;;;9.16
17716;BMP280;50159;49.426;11.182;2022-09-24T00:39:22;97462.09;;;9.17
17716;BMP280;50159;49.426;11.182;2022-09-24T00:41:49;97460.19;;;9.18
17716;BMP280;50159;49.426;11.182;2022-09-24T00:50:09;97458.44;;;9.19
17716;BMP280;50159;49.426;11.182;2022-09-24T00:52:45;97456.53;;;9.21
17716;BMP280;50159;49.426;11.182;2022-09-24T00:55:14;97461.59;;;9.22
17716;BMP280;50159;49.426;11.182;2022-09-24T00:57:42;97454.06;;;9.19
17716;BMP280;50159;49.426;11.182;2022-09-24T01:00:11;97456.91;;;9.17
17716;BMP280;50159;49.426;11.182;2022-09-24T01:02:41;97445.09;;;9.13
17716;BMP280;50159;49.426;11.182;2022-09-24T01:05:10;97447.66;;;9.13
17716;BMP280;50159;49.426;11.182;2022-09-24T01:07:36;97451.91;;;9.14
17716;BMP280;50159;49.426;11.182;2022-09-24T01:10:04;97448.63;;;9.12
17716;BMP280;50159;49.426;11.182;2022-09-24T01:12:55;97443.53;;;9.10
17716;BMP280;50159;49.426;11.182;2022-09-24T01:15:39;97435.88;;;9.09
17716;BMP280;50159;49.426;11.182;2022-09-24T01:18:17;97441.78;;;9.11
17716;BMP280;50159;49.426;11.182;2022-09-24T01:26:39;97431.66;;;9.08
17716;BMP280;50159;49.426;11.182;2022-09-24T01:29:44;97430.22;;;9.04
17716;BMP280;50159;49.426;11.182;2022-09-24T01:32:39;97426.00;;;9.03
17716;BMP280;50159;49.426;11.182;2022-09-24T01:35:14;97421.00;;;9.00
17716;BMP280;50159;49.426;11.182;2022-09-24T01:37:48;97415.69;;;9.01
17716;BMP280;50159;49.426;11.182;2022-09-24T01:40:21;97410.44;;;9.03
17716;BMP280;50159;49.426;11.182;2022-09-24T01:42:50;97411.69;;;8.97
17716;BMP280;50159;49.426;11.182;2022-09-24T01:45:18;97410.16;;;8.95
17716;BMP280;50159;49.426;11.182;2022-09-24T01:47:45;97409.34;;;8.94
17716;BMP280;50159;49.426;11.182;2022-09-24T01:50:17;97398.38;;;8.91
17716;BMP280;50159;49.426;11.182;2022-09-24T01:52:58;97397.56;;;8.91
17716;BMP280;50159;49.426;11.182;2022-09-24T01:55:34;97389.66;;;8.92
17716;BMP280;50159;49.426;11.182;2022-09-24T01:58:07;97382.94;;;8.90
17716;BMP280;50159;49.426;11.182;2022-09-24T02:00:41;97375.16;;;8.90
17716;BMP280;50159;49.426;11.182;2022-09-24T02:03:18;97373.50;;;8.89
17716;BMP280;50159;49.426;11.182;2022-09-24T02:06:12;97357.09;;;8.88
17716;BMP280;50159;49.426;11.182;2022-09-24T02:08:46;97354.88;;;8.84
17716;BMP280;50159;49.426;11.182;2022-09-24T02:11:20;97359.22;;;8.83
17716;BMP280;50159;49.426;11.182;2022-09-24T02:14:01;97351.34;;;8.85
17716;BMP280;50159;49.426;11.182;2022-09-24T02:16:37;97358.78;;;8.89
17716;BMP280;50159;49.426;11.182;2022-09-24T02:19:10;97357.00;;;8.90
17716;BMP280;50159;49.426;11.182;2022-09-24T02:21:40;97357.84;;;8.90
17716;BMP280;50159;49.426;11.182;2022-09-24T02:24:15;97344.06;;;8.90
17716;BMP280;50159;49.426;11.182;2022-09-24T02:26:44;97341.34;;;8.91
17716;BMP280;50159;49.426;11.182;2022-09-24T02:29:12;97340.38;;;8.92
17716;BMP280;50159;49.426;11.182;2022-09-24T02:31:46;97347.69;;;8.87
17716;BMP280;50159;49.426;11.182;2022-09-24T02:34:20;97342.97;;;8.81
17716;BMP280;50159;49.426;11.182;2022-09-24T02:37:04;97340.63;;;8.78
17716;BMP280;50159;49.426;11.182;2022-09-24T02:39:31;97348.41;;;8.78
17716;BMP280;50159;49.426;11.182;2022-09-24T02:41:59;97349.09;;;8.80
17716;BMP280;50159;49.426;11.182;2022-09-24T02:44:26;97347.44;;;8.79
17716;BMP280;50159;49.426;11.182;2022-09-24T02:46:53;97344.38;;;8.74
17716;BMP280;50159;49.426;11.182;2022-09-24T02:49:20;97348.72;;;8.74
17716;BMP280;50159;49.426;11.182;2022-09-24T02:51:46;97343.53;;;8.74
17716;BMP280;50159;49.426;11.182;2022-09-24T02:54:13;97332.47;;;8.72
17716;BMP280;50159;49.426;11.182;2022-09-24T02:56:40;97327.16;;;8.73
17716;BMP280;50159;49.426;11.182;2022-09-24T02:59:07;97334.94;;;8.73
17716;BMP280;50159;49.426;11.182;2022-09-24T03:01:35;97334.25;;;8.72
17716;BMP280;50159;49.426;11.182;2022-09-24T03:04:02;97327.16;;;8.73
17716;BMP280;50159;49.426;11.182;2022-09-24T03:06:29;97333.06;;;8.75
17716;BMP280;50159;49.426;11.182;2022-09-24T03:08:56;97340.00;;;8.75
17716;BMP280;50159;49.426;11.182;2022-09-24T03:11:23;97328.81;;;8.74
17716;BMP280;50159;49.426;11.182;2022-09-24T03:13:50;97326.09;;;8.76
17716;BMP280;50159;49.426;11.182;2022-09-24T03:16:17;97329.63;;;8.75
17716;BMP280;50159;49.426;11.182;2022-09-24T03:18:46;97337.66;;;8.72
17716;BMP280;50159;49.426;11.182;2022-09-24T03:21:18;97342.97;;;8.71
17716;BMP280;50159;49.426;11.182;2022-09-24T03:23:46;97332.59;;;8.71
17716;BMP280;50159;49.426;11.182;2022-09-24T03:26:13;97328.22;;;8.71
17716;BMP280;50159;49.426;11.182;2022-09-24T03:28:40;97332.34;;;8.73
17716;BMP280;50159;49.426;11.182;2022-09-24T03:31:07;97333.78;;;8.77
17716;BMP280;50159;49.426;11.182;2022-09-24T03:33:41;97333.19;;;8.74
17716;BMP280;50159;49.426;11.182;2022-09-24T03:36:17;97330.56;;;8.74
17716;BMP280;50159;49.426;11.182;2022-09-24T03:38:50;97323.63;;;8.74
17716;BMP280;50159;49.426;11.182;2022-09-24T03:41:18;97325.41;;;8.74
17716;BMP280;50159;49.426;11.182;2022-09-24T03:43:45;97334.00;;;8.74
17716;BMP280;50159;49.426;11.182;2022-09-24T03:46:13;97327.16;;;8.73
17716;BMP280;50159;49.426;11.182;2022-09-24T03:48:42;97334.00;;;8.74
17716;BMP280;50159;49.426;11.182;2022-09-24T03:51:17;97331.19;;;8.77
17716;BMP280;50159;49.426;11.182;2022-09-24T03:53:46;97325.06;;;8.78
17716;BMP280;50159;49.426;11.182;2022-09-24T03:56:14;97321.53;;;8.79
17716;BMP280;50159;49.426;11.182;2022-09-24T03:58:41;97324.94;;;8.80
17716;BMP280;50159;49.426;11.182;2022-09-24T04:01:14;97312.81;;;8.80
17716;BMP280;50159;49.426;11.182;2022-09-24T04:03:47;97319.63;;;8.81
17716;BMP280;50159;49.426;11.182;2022-09-24T04:06:14;97316.22;;;8.81
17716;BMP280;50159;49.426;11.182;2022-09-24T04:08:41;97321.28;;;8.82
17716;BMP280;50159;49.426;11.182;2022-09-24T04:11:07;97315.97;;;8.84
17716;BMP280;50159;49.426;11.182;2022-09-24T04:13:34;97316.69;;;8.86
17716;BMP280;50159;49.426;11.182;2022-09-24T04:16:02;97313.97;;;8.87
17716;BMP280;50159;49.426;11.182;2022-09-24T04:18:29;97321.63;;;8.89
17716;BMP280;50159;49.426;11.182;2022-09-24T04:21:01;97320.72;;;8.90
17716;BMP280;50159;49.426;11.182;2022-09-24T04:23:28;97318.00;;;8.91
17716;BMP280;50159;49.426;11.182;2022-09-24T04:25:57;97326.59;;;8.92
17716;BMP280;50159;49.426;11.182;2022-09-24T04:28:31;97318.13;;;8.90
17716;BMP280;50159;49.426;11.182;2022-09-24T04:30:58;97320.78;;;8.88
17716;BMP280;50159;49.426;11.182;2022-09-24T04:33:25;97322.47;;;8.89
17716;BMP280;50159;49.426;11.182;2022-09-24T04:35:52;97322.47;;;8.89
17716;BMP280;50159;49.426;11.182;2022-09-24T04:38:18;97321.03;;;8.85
17716;BMP280;50159;49.426;11.182;2022-09-24T04:40:47;97318.69;;;8.82
17716;BMP280;50159;49.426;11.182;2022-09-24T04:43:14;97313.13;;;8.76
17716;BMP280;50159;49.426;11.182;2022-09-24T04:45:41;97308.91;;;8.75
17716;BMP280;50159;49.426;11.182;2022-09-24T04:48:12;97311.59;;;8.73
17716;BMP280;50159;49.426;11.182;2022-09-24T04:50:39;97310.91;;;8.72
17716;BMP280;50159;49.426;11.182;2022-09-24T04:53:12;97315.38;;;8.70
17716;BMP280;50159;49.426;11.182;2022-09-24T04:55:39;97305.25;;;8.67
17716;BMP280;50159;49.426;11.182;2022-09-24T04:58:07;97303.63;;;8.66
17716;BMP280;50159;49.426;11.182;2022-09-24T05:00:34;97321.25;;;8.61
17716;BMP280;50159;49.426;11.182;2022-09-24T05:03:02;97319.84;;;8.57
17716;BMP280;50159;49.426;11.182;2022-09-24T05:05:31;97314.91;;;8.54
17716;BMP280;50159;49.426;11.182;2022-09-24T05:07:59;97321.97;;;8.52
17716;BMP280;50159;49.426;11.182;2022-09-24T05:10:29;97314.28;;;8.50
17716;BMP280;50159;49.426;11.182;2022-09-24T05:12:57;97324.66;;;8.50
17716;BMP280;50159;49.426;11.182;2022-09-24T05:15:24;97311.81;;;8.49
17716;BMP280;50159;49.426;11.182;2022-09-24T05:17:51;97316.19;;;8.49
17716;BMP280;50159;49.426;11.182;2022-09-24T05:20:17;97313.72;;;8.47
17716;BMP280;50159;49.426;11.182;2022-09-24T05:22:47;97314.75;;;8.45
17716;BMP280;50159;49.426;11.182;2022-09-24T05:25:17;97314.88;;;8.43
17716;BMP280;50159;49.426;11.182;2022-09-24T05:27:52;97309.94;;;8.40
17716;BMP280;50159;49.426;11.182;2022-09-24T05:30:22;97302.16;;;8.40
17716;BMP280;50159;49.426;11.182;2022-09-24T05:32:50;97304.13;;;8.37
17716;BMP280;50159;49.426;11.182;2022-09-24T05:35:22;97300.84;;;8.35
17716;BMP280;50159;49.426;11.182;2022-09-24T05:37:49;97302.38;;;8.37
17716;BMP280;50159;49.426;11.182;2022-09-24T05:40:18;97310.78;;;8.41
17716;BMP280;50159;49.426;11.182;2022-09-24T05:43:03;97307.81;;;8.45
17716;BMP280;50159;49.426;11.182;2022-09-24T05:45:31;97316.06;;;8.50
17716;BMP280;50159;49.426;11.182;2022-09-24T05:47:58;97316.56;;;8.55
17716;BMP280;50159;49.426;11.182;2022-09-24T05:50:25;97317.97;;;8.59
17716;BMP280;50159;49.426;11.182;2022-09-24T05:52:52;97316.78;;;8.63
17716;BMP280;50159;49.426;11.182;2022-09-24T05:55:20;97319.16;;;8.66
17716;BMP280;50159;49.426;11.182;2022-09-24T05:57:46;97309.13;;;8.72
17716;BMP280;50159;49.426;11.182;2022-09-24T06:00:14;97311.16;;;8.79
17716;BMP280;50159;49.426;11.182;2022-09-24T06:02:41;97313.38;;;8.84
17716;BMP280;50159;49.426;11.182;2022-09-24T06:05:09;97315.41;;;8.91
17716;BMP280;50159;49.426;11.182;2022-09-24T06:07:35;97308.91;;;8.96
17716;BMP280;50159;49.426;11.182;2022-09-24T06:10:04;97314.34;;;9.04
17716;BMP280;50159;49.426;11.182;2022-09-24T06:12:32;97315.63;;;9.10
17716;BMP280;50159;49.426;11.182;2022-09-24T06:15:03;97308.06;;;9.17
17716;BMP280;50159;49.426;11.182;2022-09-24T06:17:29;97323.16;;;9.23
17716;BMP280;50159;49.426;11.182;2022-09-24T06:19:57;97321.72;;;9.30
17716;BMP280;50159;49.426;11.182;2022-09-24T06:22:24;97315.09;;;9.37
17716;BMP280;50159;49.426;11.182;2022-09-24T06:24:54;97318.19;;;9.42
17716;BMP280;50159;49.426;11.182;2022-09-24T06:27:21;97324.50;;;9.49
17716;BMP280;50159;49.426;11.182;2022-09-24T06:29:48;97317.53;;;9.60
17716;BMP280;50159;49.426;11.182;2022-09-24T06:32:14;97323.38;;;9.73
17716;BMP280;50159;49.426;11.182;2022-09-24T06:34:41;97324.09;;;9.85
17716;BMP280;50159;49.426;11.182;2022-09-24T06:37:08;97324.88;;;9.97
17716;BMP280;50159;49.426;11.182;2022-09-24T06:39:34;97330.47;;;10.12
17716;BMP280;50159;49.426;11.182;2022-09-24T06:42:01;97332.66;;;10.28
17716;BMP280;50159;49.426;11.182;2022-09-24T06:44:28;97333.03;;;10.43
17716;BMP280;50159;49.426;11.182;2022-09-24T06:46:55;97333.41;;;10.59
17716;BMP280;50159;49.426;11.182;2022-09-24T06:49:22;97332.00;;;10.75
17716;BMP280;50159;49.426;11.182;2022-09-24T06:51:49;97339.22;;;10.92
17716;BMP280;50159;49.426;11.182;2022-09-24T06:54:16;97337.38;;;11.12
17716;BMP280;50159;49.426;11.182;2022-09-24T06:56:43;97331.31;;;11.32
17716;BMP280;50159;49.426;11.182;2022-09-24T06:59:10;97333.03;;;11.51
17716;BMP280;50159;49.426;11.182;2022-09-24T07:01:36;97336.22;;;11.73
17716;BMP280;50159;49.426;11.182;2022-09-24T07:04:04;97331.47;;;11.97
17716;BMP280;50159;49.426;11.182;2022-09-24T07:06:33;97333.00;;;12.18
17716;BMP280;50159;49.426;11.182;2022-09-24T07:09:20;97330.94;;;12.40
17716;BMP280;50159;49.426;11.182;2022-09-24T07:11:47;97334.47;;;12.57
17716;BMP280;50159;49.426;11.182;2022-09-24T07:14:14;97335.00;;;12.79
17716;BMP280;50159;49.426;11.182;2022-09-24T07:16:41;97332.34;;;12.98
17716;BMP280;50159;49.426;11.182;2022-09-24T07:19:07;97329.94;;;13.14
17716;BMP280;50159;49.426;11.182;2022-09-24T07:21:34;97327.44;;;13.21
17716;BMP280;50159;49.426;11.182;2022-09-24T07:24:01;97326.19;;;13.25
17716;BMP280;50159;49.426;11.182;2022-09-24T07:26:28;97318.47;;;13.33
17716;BMP280;50159;49.426;11.182;2022-09-24T07:28:55;97329.53;;;13.44
17716;BMP280;50159;49.426;11.182;2022-09-24T07:31:22;97324.53;;;13.51
17716;BMP280;50159;49.426;11.182;2022-09-24T07:33:49;97339.88;;;13.63
17716;BMP280;50159;49.426;11.182;2022-09-24T07:36:17;97332.00;;;13.72
17716;BMP280;50159;49.426;11.182;2022-09-24T07:38:44;97329.69;;;13.69
17716;BMP280;50159;49.426;11.182;2022-09-24T07:41:12;97333.28;;;13.68
17716;BMP280;50159;49.426;11.182;2022-09-24T07:43:38;97332.19;;;13.62
17716;BMP280;50159;49.426;11.182;2022-09-24T07:46:05;97322.75;;;13.51
17716;BMP280;50159;49.426;11.182;2022-09-24T07:48:32;97333.66;;;13.47
17716;BMP280;50159;49.426;11.182;2022-09-24T07:50:59;97335.16;;;13.49
17716;BMP280;50159;49.426;11.182;2022-09-24T07:53:26;97334.97;;;13.60
17716;BMP280;50159;49.426;11.182;2022-09-24T07:55:58;97335.91;;;13.86
17716;BMP280;50159;49.426;11.182;2022-09-24T07:58:25;97343.66;;;14.21
17716;BMP280;50159;49.426;11.182;2022-09-24T08:00:51;97341.19;;;14.54
17716;BMP280;50159;49.426;11.182;2022-09-24T08:03:18;97341.50;;;14.76
17716;BMP280;50159;49.426;11.182;2022-09-24T08:05:45;97327.63;;;15.01
17716;BMP280;50159;49.426;11.182;2022-09-24T08:08:12;97335.31;;;15.19
17716;BMP280;50159;49.426;11.182;2022-09-24T08:10:40;97325.94;;;15.42
17716;BMP280;50159;49.426;11.182;2022-09-24T08:13:08;97340.44;;;15.69
17716;BMP280;50159;49.426;11.182;2022-09-24T08:15:34;97335.59;;;15.90
17716;BMP280;50159;49.426;11.182;2022-09-24T08:18:02;97336.19;;;16.09
17716;BMP280;50159;49.426;11.182;2022-09-24T08:20:31;97335.53;;;16.22
17716;BMP280;50159;49.426;11.182;2022-09-24T08:23:03;97334.09;;;16.28
17716;BMP280;50159;49.426;11.182;2022-09-24T08:25:31;97334.09;;;16.36
17716;BMP280;50159;49.426;11.182;2022-09-24T08:28:05;97339.50;;;16.34
17716;BMP280;50159;49.426;11.182;2022-09-24T08:30:34;97344.94;;;16.40
17716;BMP280;50159;49.426;11.182;2022-09-24T08:33:01;97342.31;;;16.56
17716;BMP280;50159;49.426;11.182;2022-09-24T08:35:30;97330.00;;;16.80
17716;BMP280;50159;49.426;11.182;2022-09-24T08:37:58;97339.34;;;16.82
17716;BMP280;50159;49.426;11.182;2022-09-24T08:40:30;97335.25;;;16.80
17716;BMP280;50159;49.426;11.182;2022-09-24T08:43:53;97329.50;;;16.84
17716;BMP280;50159;49.426;11.182;2022-09-24T08:46:51;97335.25;;;16.80
17716;BMP280;50159;49.426;11.182;2022-09-24T08:49:46;97339.69;;;16.72
17716;BMP280;50159;49.426;11.182;2022-09-24T08:52:30;97335.59;;;16.69
17716;BMP280;50159;49.426;11.182;2022-09-24T08:55:37;97330.16;;;16.71
17716;BMP280;50159;49.426;11.182;2022-09-24T09:01:06;97337.06;;;16.80
17716;BMP280;50159;49.426;11.182;2022-09-24T09:04:13;97333.44;;;16.73
17716;BMP280;50159;49.426;11.182;2022-09-24T09:07:10;97335.25;;;16.57
17716;BMP280;50159;49.426;11.182;2022-09-24T09:10:06;97335.25;;;16.57
17716;BMP280;50159;49.426;11.182;2022-09-24T09:12:40;97346.91;;;16.54
17716;BMP280;50159;49.426;11.182;2022-09-24T09:15:20;97346.56;;;16.57
17716;BMP280;50159;49.426;11.182;2022-09-24T09:18:15;97350.34;;;16.55
17716;BMP280;50159;49.426;11.182;2022-09-24T09:20:45;97342.31;;;16.56
17716;BMP280;50159;49.426;11.182;2022-09-24T09:23:21;97348.53;;;16.63
17716;BMP280;50159;49.426;11.182;2022-09-24T09:25:56;97339.66;;;16.64
17716;BMP280;50159;49.426;11.182;2022-09-24T09:28:26;97349.19;;;16.65
17716;BMP280;50159;49.426;11.182;2022-09-24T09:36:59;97346.91;;;17.09
17716;BMP280;50159;49.426;11.182;2022-09-24T09:40:07;97343.75;;;17.21
17716;BMP280;50159;49.426;11.182;2022-09-24T09:42:37;97350.31;;;17.33
17716;BMP280;50159;49.426;11.182;2022-09-24T09:47:59;97364.22;;;17.49
17716;BMP280;50159;49.426;11.182;2022-09-24T09:50:36;97353.06;;;17.47
17716;BMP280;50159;49.426;11.182;2022-09-24T09:53:05;97354.22;;;17.45
17716;BMP280;50159;49.426;11.182;2022-09-24T09:55:35;97356.31;;;17.57
17716;BMP280;50159;49.426;11.182;2022-09-24T09:58:17;97351.63;;;17.82
17716;BMP280;50159;49.426;11.182;2022-09-24T10:00:44;97352.53;;;18.05
17716;BMP280;50159;49.426;11.182;2022-09-24T10:06:22;97348.81;;;18.21
17716;BMP280;50159;49.426;11.182;2022-09-24T10:08:49;97354.34;;;18.26
17716;BMP280;50159;49.426;11.182;2022-09-24T10:11:17;97342.75;;;18.43
17716;BMP280;50159;49.426;11.182;2022-09-24T10:13:44;97346.66;;;18.47
17716;BMP280;50159;49.426;11.182;2022-09-24T10:16:13;97347.06;;;18.36
17716;BMP280;50159;49.426;11.182;2022-09-24T10:18:48;97336.28;;;18.23
17716;BMP280;50159;49.426;11.182;2022-09-24T10:21:32;97328.31;;;18.09
17716;BMP280;50159;49.426;11.182;2022-09-24T10:24:06;97329.16;;;18.02
17716;BMP280;50159;49.426;11.182;2022-09-24T10:26:40;97330.22;;;17.93
17716;BMP280;50159;49.426;11.182;2022-09-24T10:29:34;97333.50;;;17.87
17716;BMP280;50159;49.426;11.182;2022-09-24T10:32:23;97333.56;;;17.79
17716;BMP280;50159;49.426;11.182;2022-09-24T10:35:17;97327.50;;;17.71
17716;BMP280;50159;49.426;11.182;2022-09-24T10:37:57;97329.19;;;17.56
17716;BMP280;50159;49.426;11.182;2022-09-24T10:40:38;97330.72;;;17.43
17716;BMP280;50159;49.426;11.182;2022-09-24T10:43:06;97335.81;;;17.37
17716;BMP280;50159;49.426;11.182;2022-09-24T10:46:09;97329.91;;;17.43
17716;BMP280;50159;49.426;11.182;2022-09-24T10:52:02;97329.31;;;17.63
17716;BMP280;50159;49.426;11.182;2022-09-24T10:54:57;97325.22;;;17.68
17716;BMP280;50159;49.426;11.182;2022-09-24T10:57:58;97328.66;;;17.69
17716;BMP280;50159;49.426;11.182;2022-09-24T11:01:04;97321.59;;;17.61
17716;BMP280;50159;49.426;11.182;2022-09-24T11:07:52;97331.72;;;17.34
17716;BMP280;50159;49.426;11.182;2022-09-24T11:15:32;97340.59;;;17.41
17716;BMP280;50159;49.426;11.182;2022-09-24T11:18:33;97326.09;;;17.53
17716;BMP280;50159;49.426;11.182;2022-09-24T11:21:50;97325.97;;;17.76
17716;BMP280;50159;49.426;11.182;2022-09-24T11:27:40;97320.59;;;18.08
17716;BMP280;50159;49.426;11.182;2022-09-24T11:37:01;97326.88;;;18.29
17716;BMP280;50159;49.426;11.182;2022-09-24T11:49:49;97318.56;;;18.61
17716;BMP280;50159;49.426;11.182;2022-09-24T11:52:36;97323.81;;;18.61
17716;BMP280;50159;49.426;11.182;2022-09-24T11:55:18;97317.09;;;18.59
17716;BMP280;50159;49.426;11.182;2022-09-24T12:00:39;97316.97;;;18.53
17716;BMP280;50159;49.426;11.182;2022-09-24T12:03:28;97307.16;;;18.47
17716;BMP280;50159;49.426;11.182;2022-09-24T12:06:06;97302.44;;;18.42
17716;BMP280;50159;49.426;11.182;2022-09-24T12:09:06;97313.47;;;18.38
17716;BMP280;50159;49.426;11.182;2022-09-24T12:11:46;97306.56;;;18.37
17716;BMP280;50159;49.426;11.182;2022-09-24T12:14:40;97306.28;;;18.32
17716;BMP280;50159;49.426;11.182;2022-09-24T12:20:25;97305.41;;;18.17
17716;BMP280;50159;49.426;11.182;2022-09-24T12:23:05;97301.78;;;18.18
17716;BMP280;50159;49.426;11.182;2022-09-24T12:25:44;97294.88;;;18.17
17716;BMP280;50159;49.426;11.182;2022-09-24T12:28:18;97301.38;;;18.29
17716;BMP280;50159;49.426;11.182;2022-09-24T12:34:30;97304.81;;;18.52
17716;BMP280;50159;49.426;11.182;2022-09-24T12:37:09;97306.22;;;18.62
17716;BMP280;50159;49.426;11.182;2022-09-24T12:39:51;97301.97;;;18.75
17716;BMP280;50159;49.426;11.182;2022-09-24T12:42:21;97305.66;;;18.88
17716;BMP280;50159;49.426;11.182;2022-09-24T12:44:53;97292.25;;;18.98
17716;BMP280;50159;49.426;11.182;2022-09-24T12:47:31;97293.50;;;19.02
17716;BMP280;50159;49.426;11.182;2022-09-24T12:50:05;97292.63;;;18.95
17716;BMP280;50159;49.426;11.182;2022-09-24T12:52:42;97294.13;;;18.89
17716;BMP280;50159;49.426;11.182;2022-09-24T12:55:21;97292.22;;;18.84
17716;BMP280;50159;49.426;11.182;2022-09-24T12:58:04;97291.69;;;18.88
17716;BMP280;50159;49.426;11.182;2022-09-24T13:00:43;97295.06;;;18.74
17716;BMP280;50159;49.426;11.182;2022-09-24T13:03:38;97297.06;;;18.72
17716;BMP280;50159;49.426;11.182;2022-09-24T13:06:36;97285.38;;;18.53
17716;BMP280;50159;49.426;11.182;2022-09-24T13:09:37;97276.84;;;18.51
17716;BMP280;50159;49.426;11.182;2022-09-24T13:15:01;97277.25;;;18.76
17716;BMP280;50159;49.426;11.182;2022-09-24T13:17:33;97275.53;;;18.91
17716;BMP280;50159;49.426;11.182;2022-09-24T13:20:07;97276.06;;;19.01
17716;BMP280;50159;49.426;11.182;2022-09-24T13:22:42;97277.44;;;18.97
17716;BMP280;50159;49.426;11.182;2022-09-24T13:27:39;97260.88;;;18.88
17716;BMP280;50159;49.426;11.182;2022-09-24T13:30:37;97267.91;;;18.96
17716;BMP280;50159;49.426;11.182;2022-09-24T13:33:17;97269.16;;;19.00
17716;BMP280;50159;49.426;11.182;2022-09-24T13:36:01;97259.19;;;19.09
17716;BMP280;50159;49.426;11.182;2022-09-24T13:39:01;97267.72;;;19.40
17716;BMP280;50159;49.426;11.182;2022-09-24T13:44:41;97269.16;;;20.61
17716;BMP280;50159;49.426;11.182;2022-09-24T13:49:48;97258.22;;;20.90
17716;BMP280;50159;49.426;11.182;2022-09-24T13:52:31;97257.75;;;20.81
17716;BMP280;50159;49.426;11.182;2022-09-24T13:55:10;97261.84;;;20.83
17716;BMP280;50159;49.426;11.182;2022-09-24T13:57:45;97253.44;;;21.00
17716;BMP280;50159;49.426;11.182;2022-09-24T14:00:23;97254.63;;;21.25
17716;BMP280;50159;49.426;11.182;2022-09-24T14:05:44;97260.88;;;21.44
17716;BMP280;50159;49.426;11.182;2022-09-24T14:08:14;97252.25;;;21.76
17716;BMP280;50159;49.426;11.182;2022-09-24T14:10:43;97253.00;;;21.63
17716;BMP280;50159;49.426;11.182;2022-09-24T14:13:21;97255.72;;;22.28
17716;BMP280;50159;49.426;11.182;2022-09-24T14:16:06;96702.69;;;22.18
17716;BMP280;50159;49.426;11.182;2022-09-24T14:18:33;97250.47;;;28.18
17716;BMP280;50159;49.426;11.182;2022-09-24T14:26:28;97236.41;;;25.37
17716;BMP280;50159;49.426;11.182;2022-09-24T14:29:03;97238.53;;;24.20
17716;BMP280;50159;49.426;11.182;2022-09-24T14:31:31;97235.88;;;23.71
17716;BMP280;50159;49.426;11.182;2022-09-24T14:34:02;97230.09;;;23.05
17716;BMP280;50159;49.426;11.182;2022-09-24T14:36:34;97226.56;;;22.28
17716;BMP280;50159;49.426;11.182;2022-09-24T14:39:04;97234.88;;;21.60
17716;BMP280;50159;49.426;11.182;2022-09-24T14:41:34;97229.22;;;21.03
17716;BMP280;50159;49.426;11.182;2022-09-24T14:44:25;96871.13;;;18.38
17716;BMP280;50159;49.426;11.182;2022-09-24T14:46:57;97230.34;;;20.20
17716;BMP280;50159;49.426;11.182;2022-09-24T14:49:43;97234.75;;;19.93
17716;BMP280;50159;49.426;11.182;2022-09-24T14:52:33;97234.06;;;19.70
17716;BMP280;50159;49.426;11.182;2022-09-24T14:55:19;97229.50;;;19.50
17716;BMP280;50159;49.426;11.182;2022-09-24T14:57:49;97233.91;;;19.29
17716;BMP280;50159;49.426;11.182;2022-09-24T15:00:28;97224.09;;;19.09
17716;BMP280;50159;49.426;11.182;2022-09-24T15:03:15;97219.19;;;18.92
17716;BMP280;50159;49.426;11.182;2022-09-24T15:05:42;97219.91;;;18.86
17716;BMP280;50159;49.426;11.182;2022-09-24T15:08:27;97217.00;;;18.81
17716;BMP280;50159;49.426;11.182;2022-09-24T15:11:01;97214.22;;;18.75
17716;BMP280;50159;49.426;11.182;2022-09-24T15:13:33;97220.03;;;18.70
17716;BMP280;50159;49.426;11.182;2022-09-24T15:16:20;97219.28;;;18.62
17716;BMP280;50159;49.426;11.182;2022-09-24T15:21:33;97223.63;;;18.41
17716;BMP280;50159;49.426;11.182;2022-09-24T15:24:00;97215.13;;;18.31
17716;BMP280;50159;49.426;11.182;2022-09-24T15:26:31;97215.56;;;18.20
17716;BMP280;50159;49.426;11.182;2022-09-24T15:29:01;97227.13;;;18.12
17716;BMP280;50159;49.426;11.182;2022-09-24T15:31:29;97228.03;;;18.04
17716;BMP280;50159;49.426;11.182;2022-09-24T15:33:56;97230.88;;;17.95
17716;BMP280;50159;49.426;11.182;2022-09-24T15:36:23;97227.44;;;17.87
17716;BMP280;50159;49.426;11.182;2022-09-24T15:38:51;97230.28;;;17.77
17716;BMP280;50159;49.426;11.182;2022-09-24T15:41:22;97236.25;;;17.71
17716;BMP280;50159;49.426;11.182;2022-09-24T15:43:49;97237.91;;;17.65
17716;BMP280;50159;49.426;11.182;2022-09-24T15:46:16;97230.09;;;17.57
17716;BMP280;50159;49.426;11.182;2022-09-24T15:48:43;97238.00;;;17.49
17716;BMP280;50159;49.426;11.182;2022-09-24T15:51:10;97232.47;;;17.44
17716;BMP280;50159;49.426;11.182;2022-09-24T15:53:41;97232.94;;;17.40
17716;BMP280;50159;49.426;11.182;2022-09-24T15:56:08;97234.28;;;17.36
17716;BMP280;50159;49.426;11.182;2022-09-24T15:58:34;97227.94;;;17.30
17716;BMP280;50159;49.426;11.182;2022-09-24T16:01:02;97233.50;;;17.27
17716;BMP280;50159;49.426;11.182;2022-09-24T16:03:31;97236.47;;;17.25
17716;BMP280;50159;49.426;11.182;2022-09-24T16:05:59;97229.28;;;17.19
17716;BMP280;50159;49.426;11.182;2022-09-24T16:08:26;97236.84;;;17.14